createdAt,value
2024-02-19T00:01:54.937Z,-5.44
2024-02-19T00:05:01.800Z,-5.61
2024-02-19T00:08:10.576Z,-5.47
2024-02-19T00:11:18.082Z,-5.63
2024-02-19T00:14:27.775Z,-5.59
2024-02-19T00:17:38.522Z,-5.60
2024-02-19T00:20:45.993Z,-5.77
2024-02-19T00:23:53.170Z,-5.67
2024-02-19T00:26:59.970Z,-5.65
2024-02-19T00:30:09.521Z,-5.78
2024-02-19T00:33:16.998Z,-5.78
2024-02-19T00:36:23.848Z,-6.04
2024-02-19T00:39:31.616Z,-6.60
2024-02-19T00:42:39.133Z,-6.52
2024-02-19T00:45:47.641Z,-6.49
2024-02-19T00:48:54.895Z,-6.34
2024-02-19T00:52:02.132Z,-6.50
2024-02-19T00:55:09.748Z,-6.69
2024-02-19T00:58:16.555Z,-6.36
2024-02-19T01:01:25.901Z,-6.83
2024-02-19T01:04:33.238Z,-6.77
2024-02-19T01:07:40.372Z,-6.70
2024-02-19T01:10:47.382Z,-6.79
2024-02-19T01:13:54.169Z,-6.60
2024-02-19T01:17:03.281Z,-7.19
2024-02-19T01:20:12.237Z,-7.63
2024-02-19T01:23:19.496Z,-7.59
2024-02-19T01:26:26.068Z,-7.51
2024-02-19T01:29:33.713Z,-7.38
2024-02-19T01:32:43.234Z,-7.52
2024-02-19T01:35:49.971Z,-7.90
2024-02-19T01:38:56.966Z,-7.70
2024-02-19T01:42:05.563Z,-8.02
2024-02-19T01:45:28.971Z,-8.50
2024-02-19T01:48:38.791Z,-8.14
2024-02-19T01:51:46.493Z,-8.79
2024-02-19T01:54:53.463Z,-8.70
2024-02-19T01:58:02.922Z,-8.52
2024-02-19T02:01:19.213Z,-8.69
2024-02-19T02:04:30.945Z,-8.52
2024-02-19T02:07:37.735Z,-7.90
2024-02-19T02:10:44.600Z,-8.08
2024-02-19T02:13:52.544Z,-8.13
2024-02-19T02:16:59.778Z,-8.29
2024-02-19T02:20:10.158Z,-8.72
2024-02-19T02:23:19.484Z,-8.42
2024-02-19T02:26:26.099Z,-8.28
2024-02-19T02:29:35.590Z,-8.15
2024-02-19T02:32:42.594Z,-7.92
2024-02-19T02:35:48.935Z,-7.55
2024-02-19T02:38:55.897Z,-7.96
2024-02-19T02:42:06.248Z,-7.99
2024-02-19T02:45:15.198Z,-7.86
2024-02-19T02:48:22.318Z,-7.35
2024-02-19T02:51:32.120Z,-7.64
2024-02-19T02:55:01.302Z,-8.02
2024-02-19T02:58:10.819Z,-8.30
2024-02-19T03:01:21.326Z,-7.92
2024-02-19T03:04:28.620Z,-8.88
2024-02-19T03:07:35.665Z,-8.42
2024-02-19T03:10:43.695Z,-8.48
2024-02-19T03:13:51.267Z,-8.77
2024-02-19T03:17:00.962Z,-8.88
2024-02-19T03:20:15.069Z,-8.75
2024-02-19T03:23:22.139Z,-8.90
2024-02-19T03:29:39.290Z,-8.94
2024-02-19T03:32:47.905Z,-8.99
2024-02-19T03:35:55.878Z,-9.05
2024-02-19T03:39:03.296Z,-9.17
2024-02-19T03:42:10.845Z,-9.03
2024-02-19T03:45:18.894Z,-8.89
2024-02-19T03:48:28.411Z,-9.04
2024-02-19T03:51:36.250Z,-9.00
2024-02-19T03:54:43.349Z,-9.55
2024-02-19T03:57:50.593Z,-9.34
2024-02-19T04:00:58.296Z,-9.25
2024-02-19T04:04:07.435Z,-8.63
2024-02-19T04:07:14.596Z,-8.72
2024-02-19T04:10:21.376Z,-8.93
2024-02-19T04:13:29.077Z,-8.87
2024-02-19T04:16:36.391Z,-9.12
2024-02-19T04:19:45.252Z,-8.58
2024-02-19T04:22:52.547Z,-8.91
2024-02-19T04:25:59.852Z,-8.76
2024-02-19T04:29:07.056Z,-8.75
2024-02-19T04:32:14.141Z,-8.64
2024-02-19T04:35:22.737Z,-8.65
2024-02-19T04:38:29.721Z,-8.65
2024-02-19T04:41:36.928Z,-9.43
2024-02-19T04:44:44.169Z,-9.22
2024-02-19T04:47:52.344Z,-9.05
2024-02-19T04:51:00.934Z,-9.46
2024-02-19T04:54:08.232Z,-9.19
2024-02-19T04:57:15.302Z,-9.03
2024-02-19T05:00:23.044Z,-8.71
2024-02-19T05:03:46.765Z,-8.52
2024-02-19T05:06:55.579Z,-8.71
2024-02-19T05:10:03.946Z,-8.57
2024-02-19T05:13:12.590Z,-8.64
2024-02-19T05:16:19.593Z,-8.68
2024-02-19T05:19:26.911Z,-9.15
2024-02-19T05:22:35.859Z,-8.94
2024-02-19T05:25:44.145Z,-9.45
2024-02-19T05:28:50.980Z,-9.27
2024-02-19T05:32:01.749Z,-9.36
2024-02-19T05:35:10.454Z,-9.25
2024-02-19T05:38:19.093Z,-9.47
2024-02-19T05:41:27.460Z,-8.95
2024-02-19T05:44:35.108Z,-9.24
2024-02-19T05:47:42.160Z,-8.63
2024-02-19T05:50:48.771Z,-8.81
2024-02-19T05:53:58.938Z,-9.57
2024-02-19T05:57:08.529Z,-9.48
2024-02-19T06:00:17.217Z,-9.36
2024-02-19T06:03:34.954Z,-9.11
2024-02-19T06:06:42.928Z,-9.68
2024-02-19T06:09:52.528Z,-9.47
2024-02-19T06:13:00.794Z,-9.54
2024-02-19T06:16:08.409Z,-9.66
2024-02-19T06:19:17.457Z,-9.81
2024-02-19T06:22:25.290Z,-9.77
2024-02-19T06:25:34.862Z,-10.16
2024-02-19T06:28:42.240Z,-9.89
2024-02-19T06:31:52.047Z,-10.32
2024-02-19T06:34:59.497Z,-10.48
2024-02-19T06:38:06.689Z,-10.67
2024-02-19T06:41:15.092Z,-10.62
2024-02-19T06:44:22.083Z,-10.31
2024-02-19T06:47:29.039Z,-9.65
2024-02-19T06:50:35.981Z,-10.49
2024-02-19T06:53:43.132Z,-10.46
2024-02-19T06:56:51.464Z,-10.70
2024-02-19T06:59:59.230Z,-10.70
2024-02-19T07:03:06.968Z,-10.42
2024-02-19T07:06:13.940Z,-10.30
2024-02-19T07:09:21.969Z,-10.85
2024-02-19T07:12:30.925Z,-10.90
2024-02-19T07:15:37.675Z,-11.19
2024-02-19T07:18:44.994Z,-11.03
2024-02-19T07:21:52.118Z,-11.28
2024-02-19T07:25:09.845Z,-11.06
2024-02-19T07:28:28.254Z,-11.39
2024-02-19T07:31:35.655Z,-10.92
2024-02-19T07:34:44.547Z,-10.93
2024-02-19T07:37:51.788Z,-10.50
2024-02-19T07:40:58.835Z,-10.64
2024-02-19T07:44:07.175Z,-10.98
2024-02-19T07:47:14.598Z,-11.36
2024-02-19T07:50:21.697Z,-11.66
2024-02-19T07:53:28.742Z,-11.72
2024-02-19T07:56:37.720Z,-11.89
2024-02-19T07:59:46.230Z,-12.16
2024-02-19T08:02:52.746Z,-12.28
2024-02-19T08:05:59.867Z,-11.83
2024-02-19T08:09:08.292Z,-11.94
2024-02-19T08:12:16.498Z,-12.42
2024-02-19T08:15:26.364Z,-12.70
2024-02-19T08:18:33.958Z,-12.38
2024-02-19T08:21:40.683Z,-12.67
2024-02-19T08:24:48.372Z,-12.44
2024-02-19T08:27:56.097Z,-12.58
2024-02-19T08:31:05.344Z,-12.76
2024-02-19T08:34:14.013Z,-12.71
2024-02-19T08:37:22.633Z,-12.92
2024-02-19T08:40:29.493Z,-13.03
2024-02-19T08:43:36.161Z,-13.15
2024-02-19T08:46:44.996Z,-13.49
2024-02-19T08:49:52.395Z,-13.37
2024-02-19T08:52:59.754Z,-13.21
2024-02-19T08:56:07.743Z,-13.81
2024-02-19T08:59:14.710Z,-13.32
2024-02-19T09:02:24.235Z,-13.26
2024-02-19T09:05:31.238Z,-13.57
2024-02-19T09:08:38.784Z,-13.48
2024-02-19T09:11:45.912Z,-13.47
2024-02-19T09:14:53.447Z,-13.47
2024-02-19T09:18:03.103Z,-13.61
2024-02-19T09:21:10.758Z,-13.70
2024-02-19T09:24:17.953Z,-13.83
2024-02-19T09:27:24.713Z,-14.01
2024-02-19T09:30:31.720Z,-14.07
2024-02-19T09:33:40.517Z,-14.18
2024-02-19T09:36:48.092Z,-14.26
2024-02-19T09:40:01.007Z,-14.19
2024-02-19T09:43:12.722Z,-14.14
2024-02-19T09:46:23.355Z,-14.28
2024-02-19T09:49:39.069Z,-14.17
2024-02-19T09:52:48.071Z,-14.40
2024-02-19T09:56:00.884Z,-14.53
2024-02-19T09:59:11.607Z,-14.88
2024-02-19T10:02:27.517Z,-14.89
2024-02-19T10:05:36.397Z,-14.43
2024-02-19T10:08:43.363Z,-14.21
2024-02-19T10:11:52.722Z,-14.56
2024-02-19T10:15:00.936Z,-14.58
2024-02-19T10:18:17.334Z,-14.39
2024-02-19T10:21:26.485Z,-14.60
2024-02-19T10:24:35.469Z,-14.75
2024-02-19T10:27:42.675Z,-15.05
2024-02-19T10:30:49.477Z,-15.18
2024-02-19T10:33:57.207Z,-15.45
2024-02-19T10:37:07.625Z,-15.75
2024-02-19T10:40:20.606Z,-16.09
2024-02-19T10:43:28.454Z,-16.32
2024-02-19T10:46:36.883Z,-16.60
2024-02-19T10:49:53.473Z,-16.76
2024-02-19T10:53:03.049Z,-16.82
2024-02-19T10:56:17.263Z,-16.60
2024-02-19T10:59:24.976Z,-16.97
2024-02-19T11:02:31.678Z,-16.91
2024-02-19T11:05:41.466Z,-17.06
2024-02-19T11:08:56.270Z,-16.86
2024-02-19T11:12:04.545Z,-17.19
2024-02-19T11:15:23.142Z,-17.01
2024-02-19T11:18:32.167Z,-17.01
2024-02-19T11:21:39.345Z,-17.11
2024-02-19T11:24:48.308Z,-16.98
2024-02-19T11:27:55.701Z,-17.11
2024-02-19T11:31:06.417Z,-17.05
2024-02-19T11:34:18.100Z,-17.00
2024-02-19T11:37:25.756Z,-16.38
2024-02-19T11:40:34.957Z,-16.53
2024-02-19T11:43:42.300Z,-16.48
2024-02-19T11:46:49.795Z,-16.63
2024-02-19T11:49:58.037Z,-16.86
2024-02-19T11:53:06.557Z,-16.93
2024-02-19T11:56:14.936Z,-17.36
2024-02-19T11:59:23.545Z,-17.74
2024-02-19T12:02:30.476Z,-17.63
2024-02-19T12:05:38.292Z,-17.08
2024-02-19T12:08:46.519Z,-17.45
2024-02-19T12:11:56.786Z,-17.55
2024-02-19T12:15:04.298Z,-17.88
2024-02-19T12:18:11.916Z,-17.96
2024-02-19T12:21:20.851Z,-18.01
2024-02-19T12:24:28.510Z,-17.88
2024-02-19T12:27:38.720Z,-17.65
2024-02-19T12:30:45.864Z,-17.70
2024-02-19T12:33:53.683Z,-17.75
2024-02-19T12:37:01.312Z,-18.39
2024-02-19T12:40:10.356Z,-18.34
2024-02-19T12:43:19.345Z,-18.05
2024-02-19T12:46:27.253Z,-17.84
2024-02-19T12:49:37.467Z,-17.36
2024-02-19T12:52:46.854Z,-17.51
2024-02-19T12:55:53.855Z,-17.70
2024-02-19T12:59:02.219Z,-17.34
2024-02-19T13:02:09.706Z,-17.24
2024-02-19T13:05:16.860Z,-17.30
2024-02-19T13:08:23.989Z,-17.67
2024-02-19T13:11:31.454Z,-17.54
2024-02-19T13:14:41.521Z,-17.30
2024-02-19T13:17:50.217Z,-17.24
2024-02-19T13:20:58.179Z,-17.16
2024-02-19T13:24:05.371Z,-17.12
2024-02-19T13:27:24.682Z,-17.24
2024-02-19T13:30:33.629Z,-17.24
2024-02-19T13:33:40.317Z,-17.37
2024-02-19T13:36:48.062Z,-17.41
2024-02-19T13:39:56.014Z,-17.64
2024-02-19T13:43:02.893Z,-17.62
2024-02-19T13:46:12.373Z,-17.69
2024-02-19T13:49:19.750Z,-17.84
2024-02-19T13:52:26.535Z,-17.85
2024-02-19T13:55:33.493Z,-17.58
2024-02-19T13:58:40.711Z,-17.58
2024-02-19T14:01:49.356Z,-17.69
2024-02-19T14:04:56.674Z,-17.59
2024-02-19T14:08:04.357Z,-17.67
2024-02-19T14:11:11.869Z,-17.72
2024-02-19T14:14:20.240Z,-17.98
2024-02-19T14:17:28.771Z,-17.98
2024-02-19T14:20:35.937Z,-18.11
2024-02-19T14:23:43.583Z,-17.79
2024-02-19T14:26:50.369Z,-17.72
2024-02-19T14:29:57.467Z,-17.81
2024-02-19T14:33:05.820Z,-17.70
2024-02-19T14:36:13.123Z,-17.96
2024-02-19T14:39:22.503Z,-17.73
2024-02-19T14:42:30.295Z,-18.00
2024-02-19T14:45:38.950Z,-17.90
2024-02-19T14:48:50.128Z,-17.87
2024-02-19T14:51:58.353Z,-18.03
2024-02-19T14:55:11.872Z,-18.25
2024-02-19T14:58:20.293Z,-18.37
2024-02-19T15:01:28.087Z,-18.40
2024-02-19T15:04:37.937Z,-18.59
2024-02-19T15:07:47.794Z,-18.78
2024-02-19T15:10:56.088Z,-18.73
2024-02-19T15:14:02.895Z,-18.71
2024-02-19T15:17:10.219Z,-18.56
2024-02-19T15:20:19.748Z,-18.30
2024-02-19T15:23:30.531Z,-18.28
2024-02-19T15:26:37.708Z,-18.63
2024-02-19T15:29:45.897Z,-19.05
2024-02-19T15:32:53.736Z,-19.08
2024-02-19T15:36:09.293Z,-18.95
2024-02-19T15:39:16.363Z,-18.76
2024-02-19T15:42:24.173Z,-19.01
2024-02-19T15:45:32.260Z,-19.06
2024-02-19T15:48:40.117Z,-19.14
2024-02-19T15:51:50.138Z,-19.20
2024-02-19T15:54:58.413Z,-19.12
2024-02-19T15:58:07.051Z,-19.00
2024-02-19T16:01:14.510Z,-19.13
2024-02-19T16:04:26.261Z,-19.17
2024-02-19T16:07:35.414Z,-19.39
2024-02-19T16:10:44.963Z,-19.15
2024-02-19T16:13:52.237Z,-19.06
2024-02-19T16:16:58.947Z,-19.03
2024-02-19T16:20:09.508Z,-19.22
2024-02-19T16:23:19.948Z,-19.16
2024-02-19T16:26:28.065Z,-19.27
2024-02-19T16:29:35.656Z,-19.05
2024-02-19T16:32:42.971Z,-19.15
2024-02-19T16:35:50.279Z,-19.39
2024-02-19T16:38:58.966Z,-19.32
2024-02-19T16:42:08.470Z,-19.20
2024-02-19T16:45:16.360Z,-19.14
2024-02-19T16:48:23.173Z,-19.16
2024-02-19T16:51:30.739Z,-19.03
2024-02-19T16:54:39.411Z,-19.32
2024-02-19T16:57:47.327Z,-19.28
2024-02-19T17:00:59.485Z,-19.31
2024-02-19T17:04:06.761Z,-19.36
2024-02-19T17:07:14.592Z,-19.56
2024-02-19T17:10:24.324Z,-19.25
2024-02-19T17:13:31.547Z,-19.49
2024-02-19T17:16:38.615Z,-19.43
2024-02-19T17:19:45.917Z,-19.42
2024-02-19T17:22:53.359Z,-19.58
2024-02-19T17:26:01.690Z,-19.42
2024-02-19T17:29:08.402Z,-19.66
2024-02-19T17:32:15.892Z,-19.71
2024-02-19T17:35:25.235Z,-19.93
2024-02-19T17:38:35.144Z,-19.67
2024-02-19T17:41:45.838Z,-19.93
2024-02-19T17:44:54.138Z,-19.95
2024-02-19T17:48:01.417Z,-19.82
2024-02-19T17:51:10.663Z,-19.80
2024-02-19T17:54:17.800Z,-19.78
2024-02-19T17:57:26.373Z,-19.78
2024-02-19T18:00:33.497Z,-19.72
2024-02-19T18:03:40.894Z,-19.66
2024-02-19T18:06:48.291Z,-19.47
2024-02-19T18:09:55.231Z,-19.21
2024-02-19T18:13:04.067Z,-19.44
2024-02-19T18:16:10.941Z,-19.90
2024-02-19T18:19:18.064Z,-19.90
2024-02-19T18:22:25.324Z,-20.28
2024-02-19T18:25:33.125Z,-19.73
2024-02-19T18:28:41.682Z,-19.85
2024-02-19T18:31:53.950Z,-19.55
2024-02-19T18:35:04.236Z,-19.35
2024-02-19T18:38:12.130Z,-19.53
2024-02-19T18:41:19.213Z,-19.24
2024-02-19T18:44:27.941Z,-19.83
2024-02-19T18:47:35.897Z,-20.03
2024-02-19T18:50:42.579Z,-19.79
2024-02-19T18:53:51.552Z,-19.32
2024-02-19T18:57:02.716Z,-19.37
2024-02-19T19:00:12.338Z,-19.33
2024-02-19T19:03:23.475Z,-19.21
2024-02-19T19:06:32.317Z,-20.29
2024-02-19T19:09:41.875Z,-20.35
2024-02-19T19:12:48.657Z,-20.02
2024-02-19T19:15:58.273Z,-19.88
2024-02-19T19:19:06.492Z,-20.30
2024-02-19T19:22:16.890Z,-20.23
2024-02-19T19:25:26.663Z,-20.17
2024-02-19T19:28:33.929Z,-20.70
2024-02-19T19:31:43.352Z,-20.30
2024-02-19T19:34:50.771Z,-20.30
2024-02-19T19:37:58.422Z,-20.24
2024-02-19T19:41:05.076Z,-20.48
2024-02-19T19:44:13.570Z,-20.33
2024-02-19T19:47:22.780Z,-20.44
2024-02-19T19:50:30.188Z,-20.88
2024-02-19T19:53:38.800Z,-21.23
2024-02-19T19:56:46.263Z,-21.52
2024-02-19T19:59:53.591Z,-21.45
2024-02-19T20:03:04.974Z,-21.67
2024-02-19T20:06:12.814Z,-21.82
2024-02-19T20:09:21.405Z,-21.73
2024-02-19T20:12:27.928Z,-21.71
2024-02-19T20:15:35.573Z,-21.72
2024-02-19T20:18:44.335Z,-21.76
2024-02-19T20:21:51.896Z,-21.79
2024-02-19T20:24:58.879Z,-21.91
2024-02-19T20:28:07.353Z,-21.71
2024-02-19T20:31:14.462Z,-21.90
2024-02-19T20:34:23.468Z,-22.18
2024-02-19T20:37:30.705Z,-22.04
2024-02-19T20:40:38.966Z,-22.12
2024-02-19T20:43:46.968Z,-21.98
2024-02-19T20:46:53.407Z,-21.99
2024-02-19T20:50:02.310Z,-21.86
2024-02-19T20:53:15.256Z,-21.87
2024-02-19T20:56:23.055Z,-22.05
2024-02-19T20:59:33.100Z,-22.07
2024-02-19T21:02:42.057Z,-22.12
2024-02-19T21:05:51.299Z,-22.21
2024-02-19T21:08:57.888Z,-22.01
2024-02-19T21:12:11.260Z,-21.99
2024-02-19T21:15:18.528Z,-22.24
2024-02-19T21:18:34.087Z,-22.15
2024-02-19T21:21:47.719Z,-22.06
2024-02-19T21:24:54.618Z,-22.38
2024-02-19T21:28:02.507Z,-22.42
2024-02-19T21:31:11.588Z,-22.50
2024-02-19T21:34:19.203Z,-22.55
2024-02-19T21:37:31.502Z,-22.59
2024-02-19T21:40:41.814Z,-22.49
2024-02-19T21:43:48.757Z,-22.40
2024-02-19T21:46:55.483Z,-22.63
2024-02-19T21:50:08.311Z,-22.59
2024-02-19T21:53:16.706Z,-22.66
2024-02-19T21:56:24.056Z,-22.65
2024-02-19T21:59:31.031Z,-22.62
2024-02-19T22:02:38.614Z,-22.60
2024-02-19T22:05:45.543Z,-22.46
2024-02-19T22:08:57.619Z,-22.36
2024-02-19T22:12:05.254Z,-22.17
2024-02-19T22:15:12.976Z,-22.41
2024-02-19T22:18:21.048Z,-22.06
2024-02-19T22:21:31.547Z,-22.14
2024-02-19T22:24:41.143Z,-22.00
2024-02-19T22:27:48.347Z,-21.91
2024-02-19T22:30:56.478Z,-21.74
2024-02-19T22:34:03.602Z,-21.85
2024-02-19T22:37:10.696Z,-22.18
2024-02-19T22:40:20.088Z,-21.75
2024-02-19T22:43:28.427Z,-21.33
2024-02-19T22:46:35.320Z,-21.28
2024-02-19T22:49:43.304Z,-21.19
2024-02-19T22:52:51.072Z,-21.20
2024-02-19T22:55:59.880Z,-21.01
2024-02-19T22:59:14.701Z,-20.97
2024-02-19T23:02:27.970Z,-20.99
2024-02-19T23:05:35.366Z,-20.67
2024-02-19T23:08:42.449Z,-20.03
2024-02-19T23:11:51.044Z,-19.34
2024-02-19T23:14:57.957Z,-18.98
2024-02-19T23:18:06.323Z,-18.24
2024-02-19T23:21:14.696Z,-17.41
2024-02-19T23:24:21.045Z,-16.57
2024-02-19T23:27:29.013Z,-16.54
2024-02-19T23:30:38.676Z,-16.66
2024-02-19T23:33:45.616Z,-15.84
2024-02-19T23:36:53.488Z,-15.42
2024-02-19T23:40:01.747Z,-15.23
2024-02-19T23:43:10.644Z,-15.49
2024-02-19T23:46:18.135Z,-15.64
2024-02-19T23:49:24.852Z,-16.37
2024-02-19T23:52:32.100Z,-16.11
2024-02-19T23:55:38.782Z,-16.90
2024-02-19T23:58:50.377Z,-16.50
